sensor_id;sensor_type;location;lat;lon;timestamp;P1;durP1;ratioP1;P2;durP2;ratioP2
24233;SDS011;12365;43.554;1.388;2023-01-19T00:00:35;6.57;;;4.60;;
24233;SDS011;12365;43.554;1.388;2023-01-19T00:03:02;4.97;;;3.78;;
24233;SDS011;12365;43.554;1.388;2023-01-19T00:05:28;2.33;;;1.30;;
24233;SDS011;12365;43.554;1.388;2023-01-19T00:07:54;3.78;;;2.75;;
24233;SDS011;12365;43.554;1.388;2023-01-19T00:10:19;1.55;;;1.20;;
24233;SDS011;12365;43.554;1.388;2023-01-19T00:12:44;2.97;;;1.40;;
24233;SDS011;12365;43.554;1.388;2023-01-19T00:15:10;2.90;;;1.45;;
24233;SDS011;12365;43.554;1.388;2023-01-19T00:17:36;4.45;;;1.70;;
24233;SDS011;12365;43.554;1.388;2023-01-19T00:20:01;3.70;;;1.85;;
24233;SDS011;12365;43.554;1.388;2023-01-19T00:22:28;2.65;;;1.65;;
24233;SDS011;12365;43.554;1.388;2023-01-19T00:24:53;1.75;;;1.30;;
24233;SDS011;12365;43.554;1.388;2023-01-19T00:27:18;2.72;;;1.50;;
24233;SDS011;12365;43.554;1.388;2023-01-19T00:29:44;2.33;;;1.40;;
24233;SDS011;12365;43.554;1.388;2023-01-19T00:32:09;4.13;;;1.80;;
24233;SDS011;12365;43.554;1.388;2023-01-19T00:34:35;2.78;;;1.60;;
24233;SDS011;12365;43.554;1.388;2023-01-19T00:37:06;3.63;;;1.85;;
24233;SDS011;12365;43.554;1.388;2023-01-19T00:39:35;3.22;;;1.90;;
24233;SDS011;12365;43.554;1.388;2023-01-19T00:42:00;2.95;;;1.90;;
24233;SDS011;12365;43.554;1.388;2023-01-19T00:44:44;3.00;;;1.88;;
24233;SDS011;12365;43.554;1.388;2023-01-19T00:47:09;3.03;;;1.80;;
24233;SDS011;12365;43.554;1.388;2023-01-19T00:49:34;4.75;;;1.60;;
24233;SDS011;12365;43.554;1.388;2023-01-19T00:52:00;2.58;;;1.70;;
24233;SDS011;12365;43.554;1.388;2023-01-19T00:54:25;8.00;;;1.73;;
24233;SDS011;12365;43.554;1.388;2023-01-19T00:56:51;4.55;;;2.10;;
24233;SDS011;12365;43.554;1.388;2023-01-19T00:59:16;3.38;;;1.77;;
24233;SDS011;12365;43.554;1.388;2023-01-19T01:01:41;3.33;;;1.60;;
24233;SDS011;12365;43.554;1.388;2023-01-19T01:04:07;4.30;;;1.63;;
24233;SDS011;12365;43.554;1.388;2023-01-19T01:06:32;3.78;;;1.25;;
24233;SDS011;12365;43.554;1.388;2023-01-19T01:08:57;3.85;;;1.10;;
24233;SDS011;12365;43.554;1.388;2023-01-19T01:11:23;3.78;;;1.55;;
24233;SDS011;12365;43.554;1.388;2023-01-19T01:13:48;4.05;;;1.60;;
24233;SDS011;12365;43.554;1.388;2023-01-19T01:16:14;2.30;;;0.98;;
24233;SDS011;12365;43.554;1.388;2023-01-19T01:18:41;2.72;;;1.38;;
24233;SDS011;12365;43.554;1.388;2023-01-19T01:21:07;2.72;;;1.30;;
24233;SDS011;12365;43.554;1.388;2023-01-19T01:23:33;4.38;;;0.80;;
24233;SDS011;12365;43.554;1.388;2023-01-19T01:25:59;2.60;;;0.90;;
24233;SDS011;12365;43.554;1.388;2023-01-19T01:28:24;2.72;;;1.20;;
24233;SDS011;12365;43.554;1.388;2023-01-19T01:30:54;4.15;;;1.50;;
24233;SDS011;12365;43.554;1.388;2023-01-19T01:33:20;3.20;;;1.25;;
24233;SDS011;12365;43.554;1.388;2023-01-19T01:35:47;3.03;;;1.40;;
24233;SDS011;12365;43.554;1.388;2023-01-19T01:38:13;4.72;;;1.27;;
24233;SDS011;12365;43.554;1.388;2023-01-19T01:40:39;2.72;;;1.20;;
24233;SDS011;12365;43.554;1.388;2023-01-19T01:43:08;2.70;;;1.13;;
24233;SDS011;12365;43.554;1.388;2023-01-19T01:45:39;6.82;;;1.70;;
24233;SDS011;12365;43.554;1.388;2023-01-19T01:48:13;1.77;;;1.10;;
24233;SDS011;12365;43.554;1.388;2023-01-19T01:50:51;1.80;;;0.85;;
24233;SDS011;12365;43.554;1.388;2023-01-19T01:53:40;6.22;;;1.20;;
24233;SDS011;12365;43.554;1.388;2023-01-19T01:56:11;2.88;;;1.00;;
24233;SDS011;12365;43.554;1.388;2023-01-19T01:58:39;2.80;;;1.02;;
24233;SDS011;12365;43.554;1.388;2023-01-19T02:01:05;3.20;;;1.00;;
24233;SDS011;12365;43.554;1.388;2023-01-19T02:03:50;1.38;;;0.90;;
24233;SDS011;12365;43.554;1.388;2023-01-19T02:06:17;2.55;;;0.80;;
24233;SDS011;12365;43.554;1.388;2023-01-19T02:08:45;4.07;;;0.80;;
24233;SDS011;12365;43.554;1.388;2023-01-19T02:11:34;2.92;;;1.13;;
24233;SDS011;12365;43.554;1.388;2023-01-19T02:14:19;1.63;;;0.70;;
24233;SDS011;12365;43.554;1.388;2023-01-19T02:16:44;2.83;;;0.70;;
24233;SDS011;12365;43.554;1.388;2023-01-19T02:19:11;4.25;;;0.90;;
24233;SDS011;12365;43.554;1.388;2023-01-19T02:22:28;0.70;;;0.52;;
24233;SDS011;12365;43.554;1.388;2023-01-19T02:24:35;2.80;;;1.00;;
24233;SDS011;12365;43.554;1.388;2023-01-19T02:27:01;1.52;;;0.80;;
24233;SDS011;12365;43.554;1.388;2023-01-19T02:29:27;1.70;;;1.00;;
24233;SDS011;12365;43.554;1.388;2023-01-19T02:31:53;3.65;;;1.20;;
24233;SDS011;12365;43.554;1.388;2023-01-19T02:34:20;1.85;;;0.73;;
24233;SDS011;12365;43.554;1.388;2023-01-19T02:39:21;2.92;;;0.73;;
24233;SDS011;12365;43.554;1.388;2023-01-19T02:42:05;1.52;;;0.50;;
24233;SDS011;12365;43.554;1.388;2023-01-19T02:44:36;1.65;;;0.90;;
24233;SDS011;12365;43.554;1.388;2023-01-19T02:47:03;2.22;;;1.00;;
24233;SDS011;12365;43.554;1.388;2023-01-19T02:49:29;1.08;;;0.70;;
24233;SDS011;12365;43.554;1.388;2023-01-19T02:51:55;2.05;;;0.63;;
24233;SDS011;12365;43.554;1.388;2023-01-19T02:59:45;0.93;;;0.65;;
24233;SDS011;12365;43.554;1.388;2023-01-19T03:02:22;1.10;;;0.60;;
24233;SDS011;12365;43.554;1.388;2023-01-19T03:05:32;1.38;;;0.70;;
24233;SDS011;12365;43.554;1.388;2023-01-19T03:08:29;2.67;;;0.90;;
24233;SDS011;12365;43.554;1.388;2023-01-19T03:11:02;1.30;;;0.60;;
24233;SDS011;12365;43.554;1.388;2023-01-19T03:13:54;1.25;;;0.70;;
24233;SDS011;12365;43.554;1.388;2023-01-19T03:21:44;3.47;;;0.60;;
24233;SDS011;12365;43.554;1.388;2023-01-19T03:24:13;1.48;;;0.90;;
24233;SDS011;12365;43.554;1.388;2023-01-19T03:26:41;1.00;;;0.60;;
24233;SDS011;12365;43.554;1.388;2023-01-19T03:29:09;1.88;;;0.80;;
24233;SDS011;12365;43.554;1.388;2023-01-19T03:31:37;2.88;;;1.15;;
24233;SDS011;12365;43.554;1.388;2023-01-19T03:34:07;1.90;;;0.93;;
24233;SDS011;12365;43.554;1.388;2023-01-19T03:36:36;1.90;;;1.00;;
24233;SDS011;12365;43.554;1.388;2023-01-19T03:39:13;1.10;;;0.60;;
24233;SDS011;12365;43.554;1.388;2023-01-19T03:41:44;1.70;;;0.60;;
24233;SDS011;12365;43.554;1.388;2023-01-19T03:44:14;2.15;;;0.98;;
24233;SDS011;12365;43.554;1.388;2023-01-19T03:46:40;3.80;;;0.90;;
24233;SDS011;12365;43.554;1.388;2023-01-19T03:49:05;3.13;;;0.90;;
24233;SDS011;12365;43.554;1.388;2023-01-19T03:51:35;1.90;;;0.90;;
24233;SDS011;12365;43.554;1.388;2023-01-19T03:54:02;3.80;;;1.48;;
24233;SDS011;12365;43.554;1.388;2023-01-19T03:56:29;3.15;;;0.90;;
24233;SDS011;12365;43.554;1.388;2023-01-19T03:58:54;1.88;;;1.02;;
24233;SDS011;12365;43.554;1.388;2023-01-19T04:01:21;2.85;;;1.23;;
24233;SDS011;12365;43.554;1.388;2023-01-19T04:03:48;1.50;;;0.80;;
24233;SDS011;12365;43.554;1.388;2023-01-19T04:06:14;1.25;;;0.80;;
24233;SDS011;12365;43.554;1.388;2023-01-19T04:08:40;1.67;;;0.93;;
24233;SDS011;12365;43.554;1.388;2023-01-19T04:11:05;0.68;;;0.60;;
24233;SDS011;12365;43.554;1.388;2023-01-19T04:13:32;1.63;;;0.90;;
24233;SDS011;12365;43.554;1.388;2023-01-19T04:16:00;2.38;;;0.70;;
24233;SDS011;12365;43.554;1.388;2023-01-19T04:18:27;1.05;;;0.55;;
24233;SDS011;12365;43.554;1.388;2023-01-19T04:20:53;0.50;;;0.40;;
24233;SDS011;12365;43.554;1.388;2023-01-19T04:23:18;0.80;;;0.60;;
24233;SDS011;12365;43.554;1.388;2023-01-19T04:25:44;1.30;;;0.70;;
24233;SDS011;12365;43.554;1.388;2023-01-19T04:28:09;0.68;;;0.45;;
24233;SDS011;12365;43.554;1.388;2023-01-19T04:30:35;1.35;;;0.50;;
24233;SDS011;12365;43.554;1.388;2023-01-19T04:33:01;1.65;;;0.60;;
24233;SDS011;12365;43.554;1.388;2023-01-19T04:35:26;1.13;;;0.60;;
24233;SDS011;12365;43.554;1.388;2023-01-19T04:37:52;1.85;;;0.60;;
24233;SDS011;12365;43.554;1.388;2023-01-19T04:40:18;1.13;;;0.52;;
24233;SDS011;12365;43.554;1.388;2023-01-19T04:42:44;0.80;;;0.60;;
24233;SDS011;12365;43.554;1.388;2023-01-19T04:45:13;1.23;;;0.60;;
24233;SDS011;12365;43.554;1.388;2023-01-19T04:47:39;2.65;;;0.75;;
24233;SDS011;12365;43.554;1.388;2023-01-19T04:50:06;2.03;;;0.80;;
24233;SDS011;12365;43.554;1.388;2023-01-19T04:52:33;0.60;;;0.60;;
24233;SDS011;12365;43.554;1.388;2023-01-19T04:55:03;3.03;;;0.82;;
24233;SDS011;12365;43.554;1.388;2023-01-19T04:57:30;2.13;;;0.70;;
24233;SDS011;12365;43.554;1.388;2023-01-19T04:59:56;3.05;;;1.30;;
24233;SDS011;12365;43.554;1.388;2023-01-19T05:02:22;3.25;;;1.40;;
24233;SDS011;12365;43.554;1.388;2023-01-19T05:04:48;2.50;;;1.50;;
24233;SDS011;12365;43.554;1.388;2023-01-19T05:07:14;3.00;;;1.73;;
24233;SDS011;12365;43.554;1.388;2023-01-19T05:09:39;3.72;;;0.93;;
24233;SDS011;12365;43.554;1.388;2023-01-19T05:12:04;1.65;;;0.90;;
24233;SDS011;12365;43.554;1.388;2023-01-19T05:14:30;1.20;;;0.80;;
24233;SDS011;12365;43.554;1.388;2023-01-19T05:16:56;2.28;;;0.80;;
24233;SDS011;12365;43.554;1.388;2023-01-19T05:19:21;2.60;;;0.70;;
24233;SDS011;12365;43.554;1.388;2023-01-19T05:21:47;3.58;;;0.70;;
24233;SDS011;12365;43.554;1.388;2023-01-19T05:24:12;0.95;;;0.60;;
24233;SDS011;12365;43.554;1.388;2023-01-19T05:26:38;1.42;;;0.60;;
24233;SDS011;12365;43.554;1.388;2023-01-19T05:29:03;1.48;;;0.80;;
24233;SDS011;12365;43.554;1.388;2023-01-19T05:31:29;2.08;;;0.90;;
24233;SDS011;12365;43.554;1.388;2023-01-19T05:33:54;2.00;;;1.00;;
24233;SDS011;12365;43.554;1.388;2023-01-19T05:36:19;0.95;;;0.70;;
24233;SDS011;12365;43.554;1.388;2023-01-19T05:38:45;2.35;;;0.80;;
24233;SDS011;12365;43.554;1.388;2023-01-19T05:41:10;0.80;;;0.57;;
24233;SDS011;12365;43.554;1.388;2023-01-19T05:43:35;1.48;;;0.73;;
24233;SDS011;12365;43.554;1.388;2023-01-19T05:46:02;0.90;;;0.70;;
24233;SDS011;12365;43.554;1.388;2023-01-19T05:48:29;1.58;;;0.70;;
24233;SDS011;12365;43.554;1.388;2023-01-19T05:50:57;1.02;;;0.50;;
24233;SDS011;12365;43.554;1.388;2023-01-19T05:53:23;2.47;;;1.10;;
24233;SDS011;12365;43.554;1.388;2023-01-19T05:55:49;1.05;;;0.60;;
24233;SDS011;12365;43.554;1.388;2023-01-19T05:58:14;1.77;;;0.80;;
24233;SDS011;12365;43.554;1.388;2023-01-19T06:00:40;2.50;;;0.60;;
24233;SDS011;12365;43.554;1.388;2023-01-19T06:03:06;1.27;;;0.90;;
24233;SDS011;12365;43.554;1.388;2023-01-19T06:05:31;0.90;;;0.80;;
24233;SDS011;12365;43.554;1.388;2023-01-19T06:07:57;1.55;;;0.80;;
24233;SDS011;12365;43.554;1.388;2023-01-19T06:10:23;1.38;;;0.60;;
24233;SDS011;12365;43.554;1.388;2023-01-19T06:12:49;1.83;;;1.15;;
24233;SDS011;12365;43.554;1.388;2023-01-19T06:15:15;2.28;;;0.73;;
24233;SDS011;12365;43.554;1.388;2023-01-19T06:17:41;0.70;;;0.60;;
24233;SDS011;12365;43.554;1.388;2023-01-19T06:20:07;1.25;;;0.93;;
24233;SDS011;12365;43.554;1.388;2023-01-19T06:22:33;1.05;;;0.82;;
24233;SDS011;12365;43.554;1.388;2023-01-19T06:24:58;1.40;;;0.60;;
24233;SDS011;12365;43.554;1.388;2023-01-19T06:27:24;1.63;;;0.82;;
24233;SDS011;12365;43.554;1.388;2023-01-19T06:29:49;1.35;;;0.90;;
24233;SDS011;12365;43.554;1.388;2023-01-19T06:32:15;1.67;;;0.98;;
24233;SDS011;12365;43.554;1.388;2023-01-19T06:34:40;2.10;;;1.15;;
24233;SDS011;12365;43.554;1.388;2023-01-19T06:37:08;1.05;;;0.90;;
24233;SDS011;12365;43.554;1.388;2023-01-19T06:39:36;1.05;;;0.88;;
24233;SDS011;12365;43.554;1.388;2023-01-19T06:42:04;73.90;;;44.97;;
24233;SDS011;12365;43.554;1.388;2023-01-19T06:44:30;49.55;;;32.63;;
24233;SDS011;12365;43.554;1.388;2023-01-19T06:46:56;3.90;;;1.98;;
24233;SDS011;12365;43.554;1.388;2023-01-19T06:49:21;1.55;;;0.90;;
24233;SDS011;12365;43.554;1.388;2023-01-19T06:51:46;3.67;;;0.98;;
24233;SDS011;12365;43.554;1.388;2023-01-19T06:54:12;5.15;;;3.78;;
24233;SDS011;12365;43.554;1.388;2023-01-19T06:56:37;1.73;;;1.20;;
24233;SDS011;12365;43.554;1.388;2023-01-19T06:59:03;0.90;;;0.63;;
24233;SDS011;12365;43.554;1.388;2023-01-19T07:01:28;0.85;;;0.60;;
24233;SDS011;12365;43.554;1.388;2023-01-19T07:03:53;2.10;;;0.93;;
24233;SDS011;12365;43.554;1.388;2023-01-19T07:06:19;1.25;;;0.70;;
24233;SDS011;12365;43.554;1.388;2023-01-19T07:08:44;1.45;;;0.70;;
24233;SDS011;12365;43.554;1.388;2023-01-19T07:11:10;1.92;;;0.90;;
24233;SDS011;12365;43.554;1.388;2023-01-19T07:13:37;41.35;;;25.15;;
24233;SDS011;12365;43.554;1.388;2023-01-19T07:16:07;22.15;;;14.15;;
24233;SDS011;12365;43.554;1.388;2023-01-19T07:18:34;136.50;;;88.43;;
24233;SDS011;12365;43.554;1.388;2023-01-19T07:21:01;155.13;;;98.15;;
24233;SDS011;12365;43.554;1.388;2023-01-19T07:23:26;50.20;;;31.25;;
24233;SDS011;12365;43.554;1.388;2023-01-19T07:25:58;2.28;;;1.80;;
24233;SDS011;12365;43.554;1.388;2023-01-19T07:28:28;2.38;;;1.90;;
24233;SDS011;12365;43.554;1.388;2023-01-19T07:30:55;2.75;;;1.60;;
24233;SDS011;12365;43.554;1.388;2023-01-19T07:33:20;4.22;;;2.63;;
24233;SDS011;12365;43.554;1.388;2023-01-19T07:35:47;7.40;;;5.22;;
24233;SDS011;12365;43.554;1.388;2023-01-19T07:38:14;5.25;;;3.42;;
24233;SDS011;12365;43.554;1.388;2023-01-19T07:40:40;1.42;;;1.23;;
24233;SDS011;12365;43.554;1.388;2023-01-19T07:43:06;3.05;;;1.15;;
24233;SDS011;12365;43.554;1.388;2023-01-19T07:45:32;6.15;;;3.15;;
24233;SDS011;12365;43.554;1.388;2023-01-19T07:47:57;1.75;;;1.00;;
24233;SDS011;12365;43.554;1.388;2023-01-19T07:50:22;5.78;;;1.48;;
24233;SDS011;12365;43.554;1.388;2023-01-19T07:52:50;2.35;;;1.10;;
24233;SDS011;12365;43.554;1.388;2023-01-19T07:55:17;2.08;;;1.00;;
24233;SDS011;12365;43.554;1.388;2023-01-19T07:57:44;1.33;;;1.10;;
24233;SDS011;12365;43.554;1.388;2023-01-19T08:00:09;1.33;;;1.10;;
24233;SDS011;12365;43.554;1.388;2023-01-19T08:02:38;2.30;;;1.17;;
24233;SDS011;12365;43.554;1.388;2023-01-19T08:05:05;3.45;;;1.40;;
24233;SDS011;12365;43.554;1.388;2023-01-19T08:07:31;2.78;;;1.55;;
24233;SDS011;12365;43.554;1.388;2023-01-19T08:09:57;17.83;;;10.95;;
24233;SDS011;12365;43.554;1.388;2023-01-19T08:12:23;4.10;;;2.30;;
24233;SDS011;12365;43.554;1.388;2023-01-19T08:14:48;4.88;;;2.25;;
24233;SDS011;12365;43.554;1.388;2023-01-19T08:17:13;9.07;;;4.82;;
24233;SDS011;12365;43.554;1.388;2023-01-19T08:19:39;2.50;;;1.55;;
24233;SDS011;12365;43.554;1.388;2023-01-19T08:22:06;1.65;;;1.30;;
24233;SDS011;12365;43.554;1.388;2023-01-19T08:24:31;4.10;;;2.17;;
24233;SDS011;12365;43.554;1.388;2023-01-19T08:27:00;1.95;;;1.30;;
24233;SDS011;12365;43.554;1.388;2023-01-19T08:29:27;2.15;;;1.40;;
24233;SDS011;12365;43.554;1.388;2023-01-19T08:31:55;2.88;;;1.35;;
24233;SDS011;12365;43.554;1.388;2023-01-19T08:34:23;3.70;;;1.50;;
24233;SDS011;12365;43.554;1.388;2023-01-19T08:36:49;3.33;;;1.63;;
24233;SDS011;12365;43.554;1.388;2023-01-19T08:39:15;4.13;;;1.50;;
24233;SDS011;12365;43.554;1.388;2023-01-19T08:41:42;2.28;;;1.30;;
24233;SDS011;12365;43.554;1.388;2023-01-19T08:44:07;3.47;;;1.50;;
24233;SDS011;12365;43.554;1.388;2023-01-19T08:46:33;2.20;;;1.40;;
24233;SDS011;12365;43.554;1.388;2023-01-19T08:48:58;1.67;;;1.15;;
24233;SDS011;12365;43.554;1.388;2023-01-19T08:51:23;1.80;;;0.98;;
24233;SDS011;12365;43.554;1.388;2023-01-19T08:53:49;7.15;;;1.92;;
24233;SDS011;12365;43.554;1.388;2023-01-19T08:56:14;5.03;;;2.78;;
24233;SDS011;12365;43.554;1.388;2023-01-19T08:58:40;1.95;;;1.30;;
24233;SDS011;12365;43.554;1.388;2023-01-19T09:01:07;1.92;;;1.20;;
24233;SDS011;12365;43.554;1.388;2023-01-19T09:03:34;2.90;;;1.00;;
24233;SDS011;12365;43.554;1.388;2023-01-19T09:06:00;1.65;;;0.93;;
24233;SDS011;12365;43.554;1.388;2023-01-19T09:08:29;1.95;;;0.90;;
24233;SDS011;12365;43.554;1.388;2023-01-19T09:10:54;0.90;;;0.70;;
24233;SDS011;12365;43.554;1.388;2023-01-19T09:13:19;3.63;;;0.70;;
24233;SDS011;12365;43.554;1.388;2023-01-19T09:15:45;1.15;;;0.65;;
24233;SDS011;12365;43.554;1.388;2023-01-19T09:18:12;2.42;;;0.90;;
24233;SDS011;12365;43.554;1.388;2023-01-19T09:20:40;2.67;;;1.10;;
24233;SDS011;12365;43.554;1.388;2023-01-19T09:23:07;1.60;;;0.70;;
24233;SDS011;12365;43.554;1.388;2023-01-19T09:25:39;2.08;;;0.70;;
24233;SDS011;12365;43.554;1.388;2023-01-19T09:28:06;1.30;;;0.60;;
24233;SDS011;12365;43.554;1.388;2023-01-19T09:30:33;1.33;;;0.93;;
24233;SDS011;12365;43.554;1.388;2023-01-19T09:33:04;2.35;;;0.70;;
24233;SDS011;12365;43.554;1.388;2023-01-19T09:35:34;2.08;;;0.52;;
24233;SDS011;12365;43.554;1.388;2023-01-19T09:38:00;1.45;;;0.68;;
24233;SDS011;12365;43.554;1.388;2023-01-19T09:40:26;4.10;;;0.80;;
24233;SDS011;12365;43.554;1.388;2023-01-19T09:42:54;4.82;;;0.80;;
24233;SDS011;12365;43.554;1.388;2023-01-19T09:47:57;4.40;;;0.70;;
24233;SDS011;12365;43.554;1.388;2023-01-19T09:50:30;1.63;;;0.70;;
24233;SDS011;12365;43.554;1.388;2023-01-19T09:53:02;2.70;;;0.73;;
24233;SDS011;12365;43.554;1.388;2023-01-19T09:55:37;1.40;;;0.60;;
24233;SDS011;12365;43.554;1.388;2023-01-19T09:58:13;1.65;;;0.73;;
24233;SDS011;12365;43.554;1.388;2023-01-19T10:00:49;0.68;;;0.60;;
24233;SDS011;12365;43.554;1.388;2023-01-19T10:03:25;0.70;;;0.45;;
24233;SDS011;12365;43.554;1.388;2023-01-19T10:05:51;1.45;;;0.50;;
24233;SDS011;12365;43.554;1.388;2023-01-19T10:11:03;4.22;;;0.60;;
24233;SDS011;12365;43.554;1.388;2023-01-19T10:13:45;0.75;;;0.40;;
24233;SDS011;12365;43.554;1.388;2023-01-19T10:16:19;1.13;;;0.40;;
24233;SDS011;12365;43.554;1.388;2023-01-19T10:19:20;0.57;;;0.40;;
24233;SDS011;12365;43.554;1.388;2023-01-19T10:21:49;2.00;;;0.47;;
24233;SDS011;12365;43.554;1.388;2023-01-19T10:24:19;1.40;;;0.65;;
24233;SDS011;12365;43.554;1.388;2023-01-19T10:26:50;2.15;;;1.10;;
24233;SDS011;12365;43.554;1.388;2023-01-19T10:29:29;1.85;;;0.93;;
24233;SDS011;12365;43.554;1.388;2023-01-19T10:34:26;1.83;;;0.50;;
24233;SDS011;12365;43.554;1.388;2023-01-19T10:36:54;1.60;;;0.85;;
24233;SDS011;12365;43.554;1.388;2023-01-19T10:39:26;2.45;;;0.80;;
24233;SDS011;12365;43.554;1.388;2023-01-19T10:41:52;2.38;;;0.73;;
24233;SDS011;12365;43.554;1.388;2023-01-19T10:44:24;2.15;;;0.77;;
24233;SDS011;12365;43.554;1.388;2023-01-19T10:46:51;0.95;;;0.60;;
24233;SDS011;12365;43.554;1.388;2023-01-19T10:49:27;3.55;;;0.77;;
24233;SDS011;12365;43.554;1.388;2023-01-19T10:51:56;1.05;;;0.50;;
24233;SDS011;12365;43.554;1.388;2023-01-19T10:54:23;1.85;;;0.70;;
24233;SDS011;12365;43.554;1.388;2023-01-19T10:57:00;2.78;;;1.20;;
24233;SDS011;12365;43.554;1.388;2023-01-19T10:59:32;3.33;;;1.80;;
24233;SDS011;12365;43.554;1.388;2023-01-19T11:02:01;3.05;;;0.90;;
24233;SDS011;12365;43.554;1.388;2023-01-19T11:04:42;1.83;;;0.80;;
24233;SDS011;12365;43.554;1.388;2023-01-19T11:15:33;1.88;;;0.50;;
24233;SDS011;12365;43.554;1.388;2023-01-19T11:18:05;5.80;;;0.90;;
24233;SDS011;12365;43.554;1.388;2023-01-19T11:20:38;3.50;;;0.77;;
24233;SDS011;12365;43.554;1.388;2023-01-19T11:23:17;2.42;;;0.80;;
24233;SDS011;12365;43.554;1.388;2023-01-19T11:25:47;2.33;;;0.70;;
24233;SDS011;12365;43.554;1.388;2023-01-19T11:28:18;1.20;;;0.45;;
24233;SDS011;12365;43.554;1.388;2023-01-19T11:30:58;2.63;;;0.60;;
24233;SDS011;12365;43.554;1.388;2023-01-19T11:33:25;2.45;;;0.70;;
24233;SDS011;12365;43.554;1.388;2023-01-19T11:36:05;2.80;;;0.70;;
24233;SDS011;12365;43.554;1.388;2023-01-19T11:38:40;2.15;;;0.80;;
24233;SDS011;12365;43.554;1.388;2023-01-19T11:41:07;1.55;;;0.63;;
24233;SDS011;12365;43.554;1.388;2023-01-19T11:43:45;4.35;;;1.10;;
24233;SDS011;12365;43.554;1.388;2023-01-19T11:46:19;2.53;;;1.00;;
24233;SDS011;12365;43.554;1.388;2023-01-19T11:51:37;2.67;;;0.80;;
24233;SDS011;12365;43.554;1.388;2023-01-19T11:54:18;5.95;;;2.30;;
24233;SDS011;12365;43.554;1.388;2023-01-19T11:56:49;4.15;;;1.00;;
24233;SDS011;12365;43.554;1.388;2023-01-19T11:59:17;7.85;;;0.82;;
24233;SDS011;12365;43.554;1.388;2023-01-19T12:01:46;2.80;;;1.02;;
24233;SDS011;12365;43.554;1.388;2023-01-19T12:04:20;5.13;;;1.00;;
24233;SDS011;12365;43.554;1.388;2023-01-19T12:07:02;10.50;;;4.82;;
24233;SDS011;12365;43.554;1.388;2023-01-19T12:12:26;13.60;;;6.68;;
24233;SDS011;12365;43.554;1.388;2023-01-19T12:17:33;4.10;;;2.05;;
24233;SDS011;12365;43.554;1.388;2023-01-19T12:23:02;7.45;;;1.15;;
24233;SDS011;12365;43.554;1.388;2023-01-19T12:28:31;2.25;;;0.80;;
24233;SDS011;12365;43.554;1.388;2023-01-19T12:48:23;4.28;;;1.63;;
24233;SDS011;12365;43.554;1.388;2023-01-19T12:50:51;4.18;;;0.93;;
24233;SDS011;12365;43.554;1.388;2023-01-19T12:53:18;5.07;;;1.42;;
24233;SDS011;12365;43.554;1.388;2023-01-19T12:55:45;2.72;;;1.27;;
24233;SDS011;12365;43.554;1.388;2023-01-19T12:58:23;5.93;;;1.73;;
24233;SDS011;12365;43.554;1.388;2023-01-19T13:00:49;3.50;;;2.88;;
24233;SDS011;12365;43.554;1.388;2023-01-19T13:03:56;4.90;;;1.67;;
24233;SDS011;12365;43.554;1.388;2023-01-19T13:09:30;4.57;;;0.90;;
24233;SDS011;12365;43.554;1.388;2023-01-19T13:14:38;3.78;;;1.00;;
24233;SDS011;12365;43.554;1.388;2023-01-19T13:17:12;2.40;;;0.90;;
24233;SDS011;12365;43.554;1.388;2023-01-19T13:19:47;11.48;;;1.48;;
24233;SDS011;12365;43.554;1.388;2023-01-19T13:25:29;3.92;;;2.60;;
24233;SDS011;12365;43.554;1.388;2023-01-19T13:27:57;5.97;;;2.53;;
24233;SDS011;12365;43.554;1.388;2023-01-19T13:30:25;5.78;;;1.30;;
24233;SDS011;12365;43.554;1.388;2023-01-19T13:32:53;5.47;;;1.20;;
24233;SDS011;12365;43.554;1.388;2023-01-19T13:35:21;3.42;;;1.20;;
24233;SDS011;12365;43.554;1.388;2023-01-19T13:37:47;3.70;;;1.20;;
24233;SDS011;12365;43.554;1.388;2023-01-19T13:40:21;5.65;;;1.08;;
24233;SDS011;12365;43.554;1.388;2023-01-19T13:42:50;7.18;;;1.10;;
24233;SDS011;12365;43.554;1.388;2023-01-19T13:50:38;3.40;;;0.93;;
24233;SDS011;12365;43.554;1.388;2023-01-19T13:53:15;5.35;;;1.23;;
24233;SDS011;12365;43.554;1.388;2023-01-19T13:55:42;6.70;;;2.13;;
24233;SDS011;12365;43.554;1.388;2023-01-19T13:58:20;4.35;;;1.23;;
24233;SDS011;12365;43.554;1.388;2023-01-19T14:00:47;3.80;;;0.93;;
24233;SDS011;12365;43.554;1.388;2023-01-19T14:03:16;4.03;;;0.90;;
24233;SDS011;12365;43.554;1.388;2023-01-19T14:05:49;5.25;;;1.20;;
24233;SDS011;12365;43.554;1.388;2023-01-19T14:08:16;4.18;;;1.00;;
24233;SDS011;12365;43.554;1.388;2023-01-19T14:11:03;3.45;;;1.10;;
24233;SDS011;12365;43.554;1.388;2023-01-19T14:13:29;6.18;;;1.30;;
24233;SDS011;12365;43.554;1.388;2023-01-19T14:16:15;5.82;;;1.25;;
24233;SDS011;12365;43.554;1.388;2023-01-19T14:18:41;3.40;;;1.00;;
24233;SDS011;12365;43.554;1.388;2023-01-19T14:21:08;3.75;;;1.13;;
24233;SDS011;12365;43.554;1.388;2023-01-19T14:23:45;3.45;;;1.23;;
24233;SDS011;12365;43.554;1.388;2023-01-19T14:29:18;3.15;;;0.90;;
24233;SDS011;12365;43.554;1.388;2023-01-19T14:34:29;4.55;;;0.80;;
24233;SDS011;12365;43.554;1.388;2023-01-19T14:36:55;2.85;;;0.80;;
24233;SDS011;12365;43.554;1.388;2023-01-19T14:39:22;4.05;;;0.82;;
24233;SDS011;12365;43.554;1.388;2023-01-19T14:41:50;3.65;;;0.90;;
24233;SDS011;12365;43.554;1.388;2023-01-19T14:44:27;9.13;;;1.33;;
24233;SDS011;12365;43.554;1.388;2023-01-19T14:46:55;4.30;;;0.90;;
24233;SDS011;12365;43.554;1.388;2023-01-19T14:49:45;3.60;;;1.27;;
24233;SDS011;12365;43.554;1.388;2023-01-19T14:54:48;4.30;;;1.80;;
24233;SDS011;12365;43.554;1.388;2023-01-19T14:57:14;4.60;;;2.10;;
24233;SDS011;12365;43.554;1.388;2023-01-19T14:59:40;4.43;;;1.40;;
24233;SDS011;12365;43.554;1.388;2023-01-19T15:02:06;2.70;;;1.38;;
24233;SDS011;12365;43.554;1.388;2023-01-19T15:04:32;5.15;;;1.77;;
24233;SDS011;12365;43.554;1.388;2023-01-19T15:06:57;2.42;;;0.93;;
24233;SDS011;12365;43.554;1.388;2023-01-19T15:09:23;4.45;;;0.85;;
24233;SDS011;12365;43.554;1.388;2023-01-19T15:11:49;0.85;;;0.55;;
24233;SDS011;12365;43.554;1.388;2023-01-19T15:14:16;2.70;;;1.50;;
24233;SDS011;12365;43.554;1.388;2023-01-19T15:16:42;8.77;;;1.27;;
24233;SDS011;12365;43.554;1.388;2023-01-19T15:19:10;2.47;;;0.90;;
24233;SDS011;12365;43.554;1.388;2023-01-19T15:21:36;5.63;;;1.30;;
24233;SDS011;12365;43.554;1.388;2023-01-19T15:24:05;2.10;;;0.90;;
24233;SDS011;12365;43.554;1.388;2023-01-19T15:26:31;1.90;;;1.00;;
24233;SDS011;12365;43.554;1.388;2023-01-19T15:28:57;3.60;;;0.82;;
24233;SDS011;12365;43.554;1.388;2023-01-19T15:31:23;4.15;;;1.00;;
24233;SDS011;12365;43.554;1.388;2023-01-19T15:33:50;5.18;;;1.20;;
24233;SDS011;12365;43.554;1.388;2023-01-19T15:36:17;3.65;;;1.15;;
24233;SDS011;12365;43.554;1.388;2023-01-19T15:38:44;3.67;;;1.10;;
24233;SDS011;12365;43.554;1.388;2023-01-19T15:41:13;4.45;;;2.20;;
24233;SDS011;12365;43.554;1.388;2023-01-19T15:43:42;4.05;;;1.73;;
24233;SDS011;12365;43.554;1.388;2023-01-19T15:46:08;6.53;;;1.80;;
24233;SDS011;12365;43.554;1.388;2023-01-19T15:48:37;4.50;;;1.70;;
24233;SDS011;12365;43.554;1.388;2023-01-19T15:51:02;4.70;;;3.10;;
24233;SDS011;12365;43.554;1.388;2023-01-19T15:53:28;5.30;;;1.50;;
24233;SDS011;12365;43.554;1.388;2023-01-19T15:55:54;4.75;;;1.40;;
24233;SDS011;12365;43.554;1.388;2023-01-19T15:58:21;2.53;;;1.50;;
24233;SDS011;12365;43.554;1.388;2023-01-19T16:00:54;3.70;;;1.95;;
24233;SDS011;12365;43.554;1.388;2023-01-19T16:03:21;4.38;;;1.50;;
24233;SDS011;12365;43.554;1.388;2023-01-19T16:05:47;8.02;;;3.15;;
24233;SDS011;12365;43.554;1.388;2023-01-19T16:08:12;5.65;;;2.70;;
24233;SDS011;12365;43.554;1.388;2023-01-19T16:10:38;7.60;;;3.17;;
24233;SDS011;12365;43.554;1.388;2023-01-19T16:13:04;3.53;;;1.33;;
24233;SDS011;12365;43.554;1.388;2023-01-19T16:15:30;5.45;;;1.80;;
24233;SDS011;12365;43.554;1.388;2023-01-19T16:17:55;6.32;;;1.10;;
24233;SDS011;12365;43.554;1.388;2023-01-19T16:20:20;2.95;;;1.48;;